sensor_id;sensor_type;location;lat;lon;timestamp;P1;durP1;ratioP1;P2;durP2;ratioP2
21987;SDS011;11158;53.404;-1.510;2023-02-04T00:01:20;11.77;;;7.43;;
21987;SDS011;11158;53.404;-1.510;2023-02-04T00:03:45;10.45;;;7.00;;
21987;SDS011;11158;53.404;-1.510;2023-02-04T00:06:11;10.90;;;5.90;;
21987;SDS011;11158;53.404;-1.510;2023-02-04T00:08:36;12.00;;;6.68;;
21987;SDS011;11158;53.404;-1.510;2023-02-04T00:11:02;13.93;;;7.85;;
21987;SDS011;11158;53.404;-1.510;2023-02-04T00:13:28;9.40;;;6.13;;
21987;SDS011;11158;53.404;-1.510;2023-02-04T00:15:54;13.35;;;7.68;;
21987;SDS011;11158;53.404;-1.510;2023-02-04T00:18:20;13.32;;;7.88;;
21987;SDS011;11158;53.404;-1.510;2023-02-04T00:20:45;10.65;;;5.60;;
21987;SDS011;11158;53.404;-1.510;2023-02-04T00:23:11;12.10;;;7.80;;
21987;SDS011;11158;53.404;-1.510;2023-02-04T00:25:36;8.95;;;5.30;;
21987;SDS011;11158;53.404;-1.510;2023-02-04T00:28:02;6.50;;;4.13;;
21987;SDS011;11158;53.404;-1.510;2023-02-04T00:30:28;6.68;;;4.07;;
21987;SDS011;11158;53.404;-1.510;2023-02-04T00:32:54;9.57;;;5.57;;
21987;SDS011;11158;53.404;-1.510;2023-02-04T00:35:21;6.72;;;4.00;;
21987;SDS011;11158;53.404;-1.510;2023-02-04T00:37:48;20.95;;;10.02;;
21987;SDS011;11158;53.404;-1.510;2023-02-04T00:40:13;19.80;;;9.38;;
21987;SDS011;11158;53.404;-1.510;2023-02-04T00:42:39;20.83;;;8.23;;
21987;SDS011;11158;53.404;-1.510;2023-02-04T00:45:04;17.02;;;7.32;;
21987;SDS011;11158;53.404;-1.510;2023-02-04T00:47:30;13.45;;;5.68;;
21987;SDS011;11158;53.404;-1.510;2023-02-04T00:49:56;13.18;;;4.43;;
21987;SDS011;11158;53.404;-1.510;2023-02-04T00:52:21;10.23;;;4.25;;
21987;SDS011;11158;53.404;-1.510;2023-02-04T00:54:47;9.75;;;4.10;;
21987;SDS011;11158;53.404;-1.510;2023-02-04T00:57:13;11.02;;;3.80;;
21987;SDS011;11158;53.404;-1.510;2023-02-04T00:59:38;7.85;;;4.28;;
21987;SDS011;11158;53.404;-1.510;2023-02-04T01:02:04;10.82;;;4.38;;
21987;SDS011;11158;53.404;-1.510;2023-02-04T01:04:30;6.60;;;3.65;;
21987;SDS011;11158;53.404;-1.510;2023-02-04T01:06:55;6.05;;;3.58;;
21987;SDS011;11158;53.404;-1.510;2023-02-04T01:09:21;11.75;;;4.05;;
21987;SDS011;11158;53.404;-1.510;2023-02-04T01:11:47;8.23;;;3.72;;
21987;SDS011;11158;53.404;-1.510;2023-02-04T01:14:12;10.23;;;4.30;;
21987;SDS011;11158;53.404;-1.510;2023-02-04T01:16:38;9.35;;;4.20;;
21987;SDS011;11158;53.404;-1.510;2023-02-04T01:19:03;11.15;;;4.65;;
21987;SDS011;11158;53.404;-1.510;2023-02-04T01:21:29;11.25;;;4.43;;
21987;SDS011;11158;53.404;-1.510;2023-02-04T01:23:55;8.48;;;3.72;;
21987;SDS011;11158;53.404;-1.510;2023-02-04T01:26:20;7.60;;;4.07;;
21987;SDS011;11158;53.404;-1.510;2023-02-04T01:28:46;7.32;;;3.47;;
21987;SDS011;11158;53.404;-1.510;2023-02-04T01:31:13;9.57;;;4.55;;
21987;SDS011;11158;53.404;-1.510;2023-02-04T01:33:39;12.82;;;4.85;;
21987;SDS011;11158;53.404;-1.510;2023-02-04T01:36:04;5.30;;;2.53;;
21987;SDS011;11158;53.404;-1.510;2023-02-04T01:38:30;7.50;;;2.83;;
21987;SDS011;11158;53.404;-1.510;2023-02-04T01:40:56;8.00;;;4.43;;
21987;SDS011;11158;53.404;-1.510;2023-02-04T01:43:22;12.00;;;5.25;;
21987;SDS011;11158;53.404;-1.510;2023-02-04T01:45:48;16.27;;;5.78;;
21987;SDS011;11158;53.404;-1.510;2023-02-04T01:48:14;15.02;;;6.13;;
21987;SDS011;11158;53.404;-1.510;2023-02-04T01:50:45;13.77;;;6.63;;
21987;SDS011;11158;53.404;-1.510;2023-02-04T01:53:12;13.80;;;5.68;;
21987;SDS011;11158;53.404;-1.510;2023-02-04T01:55:40;15.13;;;5.95;;
21987;SDS011;11158;53.404;-1.510;2023-02-04T01:58:08;16.17;;;6.07;;
21987;SDS011;11158;53.404;-1.510;2023-02-04T02:00:35;5.88;;;2.78;;
21987;SDS011;11158;53.404;-1.510;2023-02-04T02:03:00;12.02;;;4.50;;
21987;SDS011;11158;53.404;-1.510;2023-02-04T02:05:29;9.40;;;3.85;;
21987;SDS011;11158;53.404;-1.510;2023-02-04T02:08:09;7.90;;;2.70;;
21987;SDS011;11158;53.404;-1.510;2023-02-04T02:10:36;8.38;;;4.35;;
21987;SDS011;11158;53.404;-1.510;2023-02-04T02:13:07;11.18;;;4.75;;
21987;SDS011;11158;53.404;-1.510;2023-02-04T02:15:36;9.00;;;4.03;;
21987;SDS011;11158;53.404;-1.510;2023-02-04T02:18:01;8.93;;;4.88;;
21987;SDS011;11158;53.404;-1.510;2023-02-04T02:20:27;7.90;;;3.35;;
21987;SDS011;11158;53.404;-1.510;2023-02-04T02:22:58;6.85;;;3.33;;
21987;SDS011;11158;53.404;-1.510;2023-02-04T02:27:51;6.28;;;2.35;;
21987;SDS011;11158;53.404;-1.510;2023-02-04T02:30:17;3.30;;;2.10;;
21987;SDS011;11158;53.404;-1.510;2023-02-04T02:32:44;4.80;;;2.08;;
21987;SDS011;11158;53.404;-1.510;2023-02-04T02:35:11;4.72;;;2.00;;
21987;SDS011;11158;53.404;-1.510;2023-02-04T02:37:37;4.95;;;2.55;;
21987;SDS011;11158;53.404;-1.510;2023-02-04T02:40:03;5.85;;;2.17;;
21987;SDS011;11158;53.404;-1.510;2023-02-04T02:42:30;4.25;;;2.05;;
21987;SDS011;11158;53.404;-1.510;2023-02-04T02:44:56;6.55;;;2.05;;
21987;SDS011;11158;53.404;-1.510;2023-02-04T02:47:22;3.95;;;2.10;;
21987;SDS011;11158;53.404;-1.510;2023-02-04T02:49:49;4.70;;;1.98;;
21987;SDS011;11158;53.404;-1.510;2023-02-04T02:52:16;5.30;;;2.67;;
21987;SDS011;11158;53.404;-1.510;2023-02-04T02:54:42;3.95;;;1.90;;
21987;SDS011;11158;53.404;-1.510;2023-02-04T02:57:13;4.97;;;2.05;;
21987;SDS011;11158;53.404;-1.510;2023-02-04T02:59:41;5.18;;;1.98;;
21987;SDS011;11158;53.404;-1.510;2023-02-04T03:02:08;4.00;;;2.25;;
21987;SDS011;11158;53.404;-1.510;2023-02-04T03:04:54;4.03;;;1.80;;
21987;SDS011;11158;53.404;-1.510;2023-02-04T03:07:24;3.28;;;1.77;;
21987;SDS011;11158;53.404;-1.510;2023-02-04T03:09:50;7.20;;;2.10;;
21987;SDS011;11158;53.404;-1.510;2023-02-04T03:12:17;3.03;;;1.70;;
21987;SDS011;11158;53.404;-1.510;2023-02-04T03:14:43;4.38;;;1.65;;
21987;SDS011;11158;53.404;-1.510;2023-02-04T03:17:09;7.05;;;2.38;;
21987;SDS011;11158;53.404;-1.510;2023-02-04T03:19:36;5.22;;;1.55;;
21987;SDS011;11158;53.404;-1.510;2023-02-04T03:22:03;2.47;;;1.58;;
21987;SDS011;11158;53.404;-1.510;2023-02-04T03:24:29;2.33;;;1.60;;
21987;SDS011;11158;53.404;-1.510;2023-02-04T03:26:56;3.80;;;2.05;;
21987;SDS011;11158;53.404;-1.510;2023-02-04T03:29:21;4.97;;;1.77;;
21987;SDS011;11158;53.404;-1.510;2023-02-04T03:31:47;4.93;;;1.77;;
21987;SDS011;11158;53.404;-1.510;2023-02-04T03:34:13;2.58;;;1.85;;
21987;SDS011;11158;53.404;-1.510;2023-02-04T03:36:38;5.28;;;1.65;;
21987;SDS011;11158;53.404;-1.510;2023-02-04T03:39:04;4.15;;;2.00;;
21987;SDS011;11158;53.404;-1.510;2023-02-04T03:41:29;1.65;;;1.52;;
21987;SDS011;11158;53.404;-1.510;2023-02-04T03:43:55;2.75;;;1.73;;
21987;SDS011;11158;53.404;-1.510;2023-02-04T03:46:20;2.28;;;1.60;;
21987;SDS011;11158;53.404;-1.510;2023-02-04T03:48:48;2.60;;;1.63;;
21987;SDS011;11158;53.404;-1.510;2023-02-04T03:51:13;3.17;;;1.70;;
21987;SDS011;11158;53.404;-1.510;2023-02-04T03:53:39;2.97;;;1.50;;
21987;SDS011;11158;53.404;-1.510;2023-02-04T03:56:05;3.47;;;1.58;;
21987;SDS011;11158;53.404;-1.510;2023-02-04T03:58:31;4.45;;;1.52;;
21987;SDS011;11158;53.404;-1.510;2023-02-04T04:00:56;2.53;;;1.70;;
21987;SDS011;11158;53.404;-1.510;2023-02-04T04:03:22;2.70;;;1.42;;
21987;SDS011;11158;53.404;-1.510;2023-02-04T04:05:47;3.40;;;1.90;;
21987;SDS011;11158;53.404;-1.510;2023-02-04T04:08:13;3.17;;;2.20;;
21987;SDS011;11158;53.404;-1.510;2023-02-04T04:10:38;2.83;;;1.85;;
21987;SDS011;11158;53.404;-1.510;2023-02-04T04:13:04;3.47;;;1.63;;
21987;SDS011;11158;53.404;-1.510;2023-02-04T04:15:30;4.43;;;1.70;;
21987;SDS011;11158;53.404;-1.510;2023-02-04T04:17:59;2.80;;;1.60;;
21987;SDS011;11158;53.404;-1.510;2023-02-04T04:20:26;5.07;;;2.00;;
21987;SDS011;11158;53.404;-1.510;2023-02-04T04:22:53;3.00;;;2.13;;
21987;SDS011;11158;53.404;-1.510;2023-02-04T04:25:18;3.17;;;2.05;;
21987;SDS011;11158;53.404;-1.510;2023-02-04T04:27:44;3.70;;;2.00;;
21987;SDS011;11158;53.404;-1.510;2023-02-04T04:30:10;3.60;;;1.70;;
21987;SDS011;11158;53.404;-1.510;2023-02-04T04:32:36;4.25;;;1.98;;
21987;SDS011;11158;53.404;-1.510;2023-02-04T04:35:01;1.83;;;1.70;;
21987;SDS011;11158;53.404;-1.510;2023-02-04T04:37:27;1.83;;;1.50;;
21987;SDS011;11158;53.404;-1.510;2023-02-04T04:39:53;2.67;;;1.70;;
21987;SDS011;11158;53.404;-1.510;2023-02-04T04:42:19;3.63;;;1.90;;
21987;SDS011;11158;53.404;-1.510;2023-02-04T04:44:44;1.75;;;1.58;;
21987;SDS011;11158;53.404;-1.510;2023-02-04T04:47:10;3.20;;;1.60;;
21987;SDS011;11158;53.404;-1.510;2023-02-04T04:49:35;3.95;;;2.10;;
21987;SDS011;11158;53.404;-1.510;2023-02-04T04:52:01;5.20;;;1.73;;
21987;SDS011;11158;53.404;-1.510;2023-02-04T04:54:27;3.25;;;1.83;;
21987;SDS011;11158;53.404;-1.510;2023-02-04T04:56:52;6.30;;;1.88;;
21987;SDS011;11158;53.404;-1.510;2023-02-04T04:59:18;2.38;;;1.65;;
21987;SDS011;11158;53.404;-1.510;2023-02-04T05:01:43;5.20;;;1.88;;
21987;SDS011;11158;53.404;-1.510;2023-02-04T05:04:09;4.97;;;1.83;;
21987;SDS011;11158;53.404;-1.510;2023-02-04T05:06:34;3.33;;;2.10;;
21987;SDS011;11158;53.404;-1.510;2023-02-04T05:09:00;4.72;;;2.53;;
21987;SDS011;11158;53.404;-1.510;2023-02-04T05:11:25;7.18;;;2.88;;
21987;SDS011;11158;53.404;-1.510;2023-02-04T05:13:51;5.53;;;2.80;;
21987;SDS011;11158;53.404;-1.510;2023-02-04T05:16:16;5.15;;;2.92;;
21987;SDS011;11158;53.404;-1.510;2023-02-04T05:18:42;5.03;;;2.72;;
21987;SDS011;11158;53.404;-1.510;2023-02-04T05:21:08;6.55;;;3.40;;
21987;SDS011;11158;53.404;-1.510;2023-02-04T05:23:34;5.18;;;2.70;;
21987;SDS011;11158;53.404;-1.510;2023-02-04T05:25:59;4.78;;;2.35;;
21987;SDS011;11158;53.404;-1.510;2023-02-04T05:28:25;4.85;;;3.00;;
21987;SDS011;11158;53.404;-1.510;2023-02-04T05:30:51;8.02;;;3.33;;
21987;SDS011;11158;53.404;-1.510;2023-02-04T05:33:16;7.03;;;2.85;;
21987;SDS011;11158;53.404;-1.510;2023-02-04T05:35:42;5.45;;;2.80;;
21987;SDS011;11158;53.404;-1.510;2023-02-04T05:38:08;3.25;;;2.33;;
21987;SDS011;11158;53.404;-1.510;2023-02-04T05:40:33;5.47;;;2.65;;
21987;SDS011;11158;53.404;-1.510;2023-02-04T05:42:59;3.78;;;2.70;;
21987;SDS011;11158;53.404;-1.510;2023-02-04T05:45:25;5.53;;;3.05;;
21987;SDS011;11158;53.404;-1.510;2023-02-04T05:47:51;5.85;;;3.42;;
21987;SDS011;11158;53.404;-1.510;2023-02-04T05:50:16;7.90;;;3.83;;
21987;SDS011;11158;53.404;-1.510;2023-02-04T05:52:42;6.88;;;4.15;;
21987;SDS011;11158;53.404;-1.510;2023-02-04T05:55:09;9.50;;;4.68;;
21987;SDS011;11158;53.404;-1.510;2023-02-04T05:57:36;9.00;;;4.63;;
21987;SDS011;11158;53.404;-1.510;2023-02-04T06:00:04;10.88;;;5.32;;
21987;SDS011;11158;53.404;-1.510;2023-02-04T06:02:30;9.98;;;5.03;;
21987;SDS011;11158;53.404;-1.510;2023-02-04T06:04:56;10.32;;;4.72;;
21987;SDS011;11158;53.404;-1.510;2023-02-04T06:07:21;5.63;;;3.90;;
21987;SDS011;11158;53.404;-1.510;2023-02-04T06:09:48;7.78;;;3.67;;
21987;SDS011;11158;53.404;-1.510;2023-02-04T06:12:13;6.43;;;3.75;;
21987;SDS011;11158;53.404;-1.510;2023-02-04T06:14:39;7.15;;;4.00;;
21987;SDS011;11158;53.404;-1.510;2023-02-04T06:17:04;9.60;;;4.15;;
21987;SDS011;11158;53.404;-1.510;2023-02-04T06:19:30;8.45;;;3.67;;
21987;SDS011;11158;53.404;-1.510;2023-02-04T06:21:55;5.88;;;3.63;;
21987;SDS011;11158;53.404;-1.510;2023-02-04T06:24:21;7.28;;;2.80;;
21987;SDS011;11158;53.404;-1.510;2023-02-04T06:26:47;4.20;;;2.40;;
21987;SDS011;11158;53.404;-1.510;2023-02-04T06:29:12;3.20;;;2.30;;
21987;SDS011;11158;53.404;-1.510;2023-02-04T06:31:38;3.40;;;1.42;;
21987;SDS011;11158;53.404;-1.510;2023-02-04T06:34:03;2.25;;;1.02;;
21987;SDS011;11158;53.404;-1.510;2023-02-04T06:36:30;1.83;;;1.08;;
21987;SDS011;11158;53.404;-1.510;2023-02-04T06:38:56;5.18;;;1.20;;
21987;SDS011;11158;53.404;-1.510;2023-02-04T06:41:22;2.92;;;1.20;;
21987;SDS011;11158;53.404;-1.510;2023-02-04T06:43:48;1.98;;;0.70;;
21987;SDS011;11158;53.404;-1.510;2023-02-04T06:46:13;3.47;;;0.82;;
21987;SDS011;11158;53.404;-1.510;2023-02-04T06:48:40;3.50;;;0.98;;
21987;SDS011;11158;53.404;-1.510;2023-02-04T06:51:05;5.28;;;0.93;;
21987;SDS011;11158;53.404;-1.510;2023-02-04T06:53:31;4.00;;;0.93;;
21987;SDS011;11158;53.404;-1.510;2023-02-04T06:55:56;2.90;;;1.15;;
21987;SDS011;11158;53.404;-1.510;2023-02-04T06:58:22;4.78;;;0.77;;
21987;SDS011;11158;53.404;-1.510;2023-02-04T07:00:48;3.75;;;1.05;;
21987;SDS011;11158;53.404;-1.510;2023-02-04T07:03:13;6.88;;;1.13;;
21987;SDS011;11158;53.404;-1.510;2023-02-04T07:05:39;2.63;;;1.05;;
21987;SDS011;11158;53.404;-1.510;2023-02-04T07:08:04;2.38;;;1.00;;
21987;SDS011;11158;53.404;-1.510;2023-02-04T07:10:30;3.42;;;0.82;;
21987;SDS011;11158;53.404;-1.510;2023-02-04T07:12:56;4.53;;;1.27;;
21987;SDS011;11158;53.404;-1.510;2023-02-04T07:15:22;2.35;;;1.17;;
21987;SDS011;11158;53.404;-1.510;2023-02-04T07:17:48;1.92;;;0.90;;
21987;SDS011;11158;53.404;-1.510;2023-02-04T07:20:14;2.03;;;0.80;;
21987;SDS011;11158;53.404;-1.510;2023-02-04T07:22:40;2.45;;;0.82;;
21987;SDS011;11158;53.404;-1.510;2023-02-04T07:25:06;3.50;;;1.00;;
21987;SDS011;11158;53.404;-1.510;2023-02-04T07:27:34;1.50;;;0.85;;
21987;SDS011;11158;53.404;-1.510;2023-02-04T07:30:00;2.90;;;1.10;;
21987;SDS011;11158;53.404;-1.510;2023-02-04T07:32:25;3.85;;;0.95;;
21987;SDS011;11158;53.404;-1.510;2023-02-04T07:34:52;7.15;;;1.10;;
21987;SDS011;11158;53.404;-1.510;2023-02-04T07:37:18;2.45;;;0.93;;
21987;SDS011;11158;53.404;-1.510;2023-02-04T07:39:44;3.05;;;0.98;;
21987;SDS011;11158;53.404;-1.510;2023-02-04T07:42:10;5.47;;;1.20;;
21987;SDS011;11158;53.404;-1.510;2023-02-04T07:44:35;2.65;;;1.00;;
21987;SDS011;11158;53.404;-1.510;2023-02-04T07:47:02;2.10;;;1.02;;
21987;SDS011;11158;53.404;-1.510;2023-02-04T07:49:27;3.95;;;0.90;;
21987;SDS011;11158;53.404;-1.510;2023-02-04T07:51:53;1.83;;;0.90;;
21987;SDS011;11158;53.404;-1.510;2023-02-04T07:54:19;7.30;;;1.30;;
21987;SDS011;11158;53.404;-1.510;2023-02-04T07:56:44;2.28;;;0.95;;
21987;SDS011;11158;53.404;-1.510;2023-02-04T07:59:10;3.47;;;0.90;;
21987;SDS011;11158;53.404;-1.510;2023-02-04T08:01:35;0.73;;;0.60;;
21987;SDS011;11158;53.404;-1.510;2023-02-04T08:04:01;1.50;;;0.80;;
21987;SDS011;11158;53.404;-1.510;2023-02-04T08:06:27;3.17;;;0.88;;
21987;SDS011;11158;53.404;-1.510;2023-02-04T08:08:53;5.32;;;0.90;;
21987;SDS011;11158;53.404;-1.510;2023-02-04T08:11:18;3.67;;;1.00;;
21987;SDS011;11158;53.404;-1.510;2023-02-04T08:13:44;7.47;;;1.13;;
21987;SDS011;11158;53.404;-1.510;2023-02-04T08:16:10;5.22;;;0.90;;
21987;SDS011;11158;53.404;-1.510;2023-02-04T08:18:35;2.60;;;1.13;;
21987;SDS011;11158;53.404;-1.510;2023-02-04T08:21:01;5.55;;;0.95;;
21987;SDS011;11158;53.404;-1.510;2023-02-04T08:23:29;1.92;;;0.90;;
21987;SDS011;11158;53.404;-1.510;2023-02-04T08:25:54;2.45;;;0.90;;
21987;SDS011;11158;53.404;-1.510;2023-02-04T08:28:20;3.10;;;1.05;;
21987;SDS011;11158;53.404;-1.510;2023-02-04T08:30:46;4.40;;;0.90;;
21987;SDS011;11158;53.404;-1.510;2023-02-04T08:33:12;2.42;;;0.82;;
21987;SDS011;11158;53.404;-1.510;2023-02-04T08:35:37;6.85;;;1.15;;
21987;SDS011;11158;53.404;-1.510;2023-02-04T08:38:03;4.68;;;0.70;;
21987;SDS011;11158;53.404;-1.510;2023-02-04T08:40:28;3.17;;;1.02;;
21987;SDS011;11158;53.404;-1.510;2023-02-04T08:42:54;5.70;;;1.23;;
21987;SDS011;11158;53.404;-1.510;2023-02-04T08:45:20;4.85;;;1.25;;
21987;SDS011;11158;53.404;-1.510;2023-02-04T08:47:45;6.30;;;1.20;;
21987;SDS011;11158;53.404;-1.510;2023-02-04T08:50:11;4.18;;;1.15;;
21987;SDS011;11158;53.404;-1.510;2023-02-04T08:52:36;4.93;;;0.88;;
21987;SDS011;11158;53.404;-1.510;2023-02-04T08:55:02;2.00;;;0.70;;
21987;SDS011;11158;53.404;-1.510;2023-02-04T08:57:28;4.88;;;1.15;;
21987;SDS011;11158;53.404;-1.510;2023-02-04T08:59:54;4.00;;;1.17;;
21987;SDS011;11158;53.404;-1.510;2023-02-04T09:02:20;3.25;;;0.88;;
21987;SDS011;11158;53.404;-1.510;2023-02-04T09:04:45;4.90;;;0.90;;
21987;SDS011;11158;53.404;-1.510;2023-02-04T09:07:11;4.35;;;0.65;;
21987;SDS011;11158;53.404;-1.510;2023-02-04T09:09:36;5.78;;;1.00;;
21987;SDS011;11158;53.404;-1.510;2023-02-04T09:12:02;3.97;;;1.30;;
21987;SDS011;11158;53.404;-1.510;2023-02-04T09:14:28;2.63;;;0.70;;
21987;SDS011;11158;53.404;-1.510;2023-02-04T09:16:53;7.13;;;1.08;;
21987;SDS011;11158;53.404;-1.510;2023-02-04T09:19:19;5.15;;;1.08;;
21987;SDS011;11158;53.404;-1.510;2023-02-04T09:21:50;3.90;;;1.02;;
21987;SDS011;11158;53.404;-1.510;2023-02-04T09:24:16;4.05;;;0.90;;
21987;SDS011;11158;53.404;-1.510;2023-02-04T09:26:42;5.90;;;0.95;;
21987;SDS011;11158;53.404;-1.510;2023-02-04T09:29:07;6.70;;;1.48;;
21987;SDS011;11158;53.404;-1.510;2023-02-04T09:31:33;3.72;;;0.93;;
21987;SDS011;11158;53.404;-1.510;2023-02-04T09:34:00;3.05;;;0.90;;
21987;SDS011;11158;53.404;-1.510;2023-02-04T09:36:25;4.47;;;0.93;;
21987;SDS011;11158;53.404;-1.510;2023-02-04T09:38:54;4.75;;;0.70;;
21987;SDS011;11158;53.404;-1.510;2023-02-04T09:41:20;4.68;;;0.90;;
21987;SDS011;11158;53.404;-1.510;2023-02-04T09:43:46;2.95;;;1.13;;
21987;SDS011;11158;53.404;-1.510;2023-02-04T09:46:23;7.60;;;1.15;;
21987;SDS011;11158;53.404;-1.510;2023-02-04T09:48:53;4.53;;;0.93;;
21987;SDS011;11158;53.404;-1.510;2023-02-04T09:51:22;3.78;;;1.10;;
21987;SDS011;11158;53.404;-1.510;2023-02-04T09:53:51;2.10;;;0.80;;
21987;SDS011;11158;53.404;-1.510;2023-02-04T09:56:19;3.13;;;1.17;;
21987;SDS011;11158;53.404;-1.510;2023-02-04T09:58:45;2.95;;;1.15;;
21987;SDS011;11158;53.404;-1.510;2023-02-04T10:01:13;7.05;;;1.20;;
21987;SDS011;11158;53.404;-1.510;2023-02-04T10:03:41;4.25;;;1.27;;
21987;SDS011;11158;53.404;-1.510;2023-02-04T10:06:18;2.97;;;0.60;;
21987;SDS011;11158;53.404;-1.510;2023-02-04T10:09:00;3.72;;;0.93;;
21987;SDS011;11158;53.404;-1.510;2023-02-04T10:11:26;6.20;;;0.90;;
21987;SDS011;11158;53.404;-1.510;2023-02-04T10:13:54;1.15;;;0.60;;
21987;SDS011;11158;53.404;-1.510;2023-02-04T10:19:01;2.42;;;0.80;;
21987;SDS011;11158;53.404;-1.510;2023-02-04T10:21:32;2.95;;;1.17;;
21987;SDS011;11158;53.404;-1.510;2023-02-04T10:24:01;3.83;;;1.17;;
21987;SDS011;11158;53.404;-1.510;2023-02-04T10:26:30;7.03;;;1.10;;
21987;SDS011;11158;53.404;-1.510;2023-02-04T10:29:00;4.75;;;0.95;;
21987;SDS011;11158;53.404;-1.510;2023-02-04T10:31:47;2.78;;;1.02;;
21987;SDS011;11158;53.404;-1.510;2023-02-04T10:36:40;8.45;;;1.33;;
21987;SDS011;11158;53.404;-1.510;2023-02-04T10:39:12;4.40;;;1.00;;
21987;SDS011;11158;53.404;-1.510;2023-02-04T10:41:45;4.10;;;0.85;;
21987;SDS011;11158;53.404;-1.510;2023-02-04T10:44:14;1.80;;;0.70;;
21987;SDS011;11158;53.404;-1.510;2023-02-04T10:46:41;5.07;;;1.55;;
21987;SDS011;11158;53.404;-1.510;2023-02-04T10:49:16;3.42;;;0.90;;
21987;SDS011;11158;53.404;-1.510;2023-02-04T10:51:47;3.50;;;0.90;;
21987;SDS011;11158;53.404;-1.510;2023-02-04T10:54:14;3.08;;;0.80;;
21987;SDS011;11158;53.404;-1.510;2023-02-04T10:56:58;4.90;;;0.80;;
21987;SDS011;11158;53.404;-1.510;2023-02-04T10:59:44;3.38;;;0.85;;
21987;SDS011;11158;53.404;-1.510;2023-02-04T11:04:59;3.17;;;1.38;;
21987;SDS011;11158;53.404;-1.510;2023-02-04T11:07:25;7.38;;;1.15;;
21987;SDS011;11158;53.404;-1.510;2023-02-04T11:09:50;4.32;;;1.13;;
21987;SDS011;11158;53.404;-1.510;2023-02-04T11:12:20;4.15;;;1.10;;
21987;SDS011;11158;53.404;-1.510;2023-02-04T11:14:55;6.57;;;0.98;;
21987;SDS011;11158;53.404;-1.510;2023-02-04T11:17:27;3.90;;;0.90;;
21987;SDS011;11158;53.404;-1.510;2023-02-04T11:20:16;2.35;;;0.90;;
21987;SDS011;11158;53.404;-1.510;2023-02-04T11:22:54;5.72;;;1.13;;
21987;SDS011;11158;53.404;-1.510;2023-02-04T11:25:33;5.55;;;1.05;;
21987;SDS011;11158;53.404;-1.510;2023-02-04T11:28:00;1.90;;;0.90;;
21987;SDS011;11158;53.404;-1.510;2023-02-04T11:30:38;5.18;;;1.30;;
21987;SDS011;11158;53.404;-1.510;2023-02-04T11:33:04;3.67;;;0.73;;
21987;SDS011;11158;53.404;-1.510;2023-02-04T11:35:56;4.07;;;1.20;;
21987;SDS011;11158;53.404;-1.510;2023-02-04T11:38:29;4.57;;;1.00;;
21987;SDS011;11158;53.404;-1.510;2023-02-04T11:40:58;1.55;;;0.68;;
21987;SDS011;11158;53.404;-1.510;2023-02-04T11:43:24;6.50;;;1.20;;
21987;SDS011;11158;53.404;-1.510;2023-02-04T11:46:12;2.85;;;0.95;;
21987;SDS011;11158;53.404;-1.510;2023-02-04T11:48:41;6.75;;;1.08;;
21987;SDS011;11158;53.404;-1.510;2023-02-04T11:51:10;5.80;;;1.00;;
21987;SDS011;11158;53.404;-1.510;2023-02-04T11:53:38;3.10;;;0.90;;
21987;SDS011;11158;53.404;-1.510;2023-02-04T11:56:04;3.88;;;1.10;;
21987;SDS011;11158;53.404;-1.510;2023-02-04T11:58:30;6.22;;;0.88;;
21987;SDS011;11158;53.404;-1.510;2023-02-04T12:00:56;2.05;;;0.80;;
21987;SDS011;11158;53.404;-1.510;2023-02-04T12:05:49;4.63;;;0.80;;
21987;SDS011;11158;53.404;-1.510;2023-02-04T12:10:47;3.63;;;0.80;;
21987;SDS011;11158;53.404;-1.510;2023-02-04T12:13:24;3.25;;;0.90;;
21987;SDS011;11158;53.404;-1.510;2023-02-04T12:15:56;3.10;;;0.60;;
21987;SDS011;11158;53.404;-1.510;2023-02-04T12:18:30;3.03;;;0.80;;
21987;SDS011;11158;53.404;-1.510;2023-02-04T12:20:58;4.82;;;1.02;;
21987;SDS011;11158;53.404;-1.510;2023-02-04T12:23:25;2.30;;;1.15;;
21987;SDS011;11158;53.404;-1.510;2023-02-04T12:25:52;5.90;;;0.85;;
21987;SDS011;11158;53.404;-1.510;2023-02-04T12:28:18;3.80;;;0.90;;
21987;SDS011;11158;53.404;-1.510;2023-02-04T12:30:44;3.53;;;0.73;;
21987;SDS011;11158;53.404;-1.510;2023-02-04T12:33:09;2.55;;;0.80;;
21987;SDS011;11158;53.404;-1.510;2023-02-04T12:35:35;3.20;;;1.17;;
21987;SDS011;11158;53.404;-1.510;2023-02-04T12:38:01;4.13;;;1.17;;
21987;SDS011;11158;53.404;-1.510;2023-02-04T12:40:27;3.13;;;1.10;;
21987;SDS011;11158;53.404;-1.510;2023-02-04T12:42:53;3.53;;;1.35;;
21987;SDS011;11158;53.404;-1.510;2023-02-04T12:45:19;4.65;;;1.20;;
21987;SDS011;11158;53.404;-1.510;2023-02-04T12:47:44;4.28;;;1.00;;
21987;SDS011;11158;53.404;-1.510;2023-02-04T12:50:11;2.25;;;0.95;;
21987;SDS011;11158;53.404;-1.510;2023-02-04T12:52:38;2.33;;;1.00;;
21987;SDS011;11158;53.404;-1.510;2023-02-04T12:55:04;2.55;;;1.10;;
21987;SDS011;11158;53.404;-1.510;2023-02-04T12:57:32;2.50;;;0.80;;
21987;SDS011;11158;53.404;-1.510;2023-02-04T12:59:58;2.70;;;0.82;;
21987;SDS011;11158;53.404;-1.510;2023-02-04T13:02:28;4.18;;;0.90;;
21987;SDS011;11158;53.404;-1.510;2023-02-04T13:04:54;5.43;;;0.95;;
21987;SDS011;11158;53.404;-1.510;2023-02-04T13:07:21;4.78;;;1.00;;
21987;SDS011;11158;53.404;-1.510;2023-02-04T13:09:47;1.40;;;0.80;;
21987;SDS011;11158;53.404;-1.510;2023-02-04T13:12:13;4.53;;;0.70;;
21987;SDS011;11158;53.404;-1.510;2023-02-04T13:14:42;4.30;;;1.05;;
21987;SDS011;11158;53.404;-1.510;2023-02-04T13:17:08;3.13;;;0.82;;
21987;SDS011;11158;53.404;-1.510;2023-02-04T13:19:34;4.85;;;1.08;;
21987;SDS011;11158;53.404;-1.510;2023-02-04T13:22:00;2.30;;;0.93;;
21987;SDS011;11158;53.404;-1.510;2023-02-04T13:24:26;4.32;;;1.00;;
21987;SDS011;11158;53.404;-1.510;2023-02-04T13:26:52;3.95;;;1.20;;
21987;SDS011;11158;53.404;-1.510;2023-02-04T13:29:18;6.53;;;0.90;;
21987;SDS011;11158;53.404;-1.510;2023-02-04T13:31:44;2.90;;;0.88;;
21987;SDS011;11158;53.404;-1.510;2023-02-04T13:34:09;3.28;;;1.30;;
21987;SDS011;11158;53.404;-1.510;2023-02-04T13:36:35;3.05;;;1.20;;
21987;SDS011;11158;53.404;-1.510;2023-02-04T13:39:01;5.07;;;1.60;;
21987;SDS011;11158;53.404;-1.510;2023-02-04T13:41:27;6.22;;;1.33;;
21987;SDS011;11158;53.404;-1.510;2023-02-04T13:43:53;3.88;;;1.80;;
21987;SDS011;11158;53.404;-1.510;2023-02-04T13:46:19;2.85;;;1.50;;
21987;SDS011;11158;53.404;-1.510;2023-02-04T13:48:45;1.58;;;1.35;;
21987;SDS011;11158;53.404;-1.510;2023-02-04T13:51:10;2.10;;;1.20;;
21987;SDS011;11158;53.404;-1.510;2023-02-04T13:53:36;7.13;;;1.60;;
21987;SDS011;11158;53.404;-1.510;2023-02-04T13:56:01;2.25;;;1.30;;
21987;SDS011;11158;53.404;-1.510;2023-02-04T13:58:27;3.85;;;1.50;;
21987;SDS011;11158;53.404;-1.510;2023-02-04T14:00:53;2.47;;;1.40;;
21987;SDS011;11158;53.404;-1.510;2023-02-04T14:03:30;3.65;;;1.17;;
21987;SDS011;11158;53.404;-1.510;2023-02-04T14:05:56;3.60;;;1.20;;
21987;SDS011;11158;53.404;-1.510;2023-02-04T14:08:21;5.80;;;1.60;;
21987;SDS011;11158;53.404;-1.510;2023-02-04T14:10:47;3.40;;;1.02;;
21987;SDS011;11158;53.404;-1.510;2023-02-04T14:13:13;1.27;;;0.80;;
21987;SDS011;11158;53.404;-1.510;2023-02-04T14:15:39;3.72;;;0.77;;
21987;SDS011;11158;53.404;-1.510;2023-02-04T14:18:06;5.30;;;1.33;;
21987;SDS011;11158;53.404;-1.510;2023-02-04T14:20:32;5.07;;;1.40;;
21987;SDS011;11158;53.404;-1.510;2023-02-04T14:22:58;6.80;;;1.38;;
21987;SDS011;11158;53.404;-1.510;2023-02-04T14:25:24;8.48;;;1.63;;
21987;SDS011;11158;53.404;-1.510;2023-02-04T14:27:50;6.00;;;1.70;;
21987;SDS011;11158;53.404;-1.510;2023-02-04T14:30:16;4.95;;;1.75;;
21987;SDS011;11158;53.404;-1.510;2023-02-04T14:32:42;4.53;;;2.05;;
21987;SDS011;11158;53.404;-1.510;2023-02-04T14:35:08;4.43;;;1.67;;
21987;SDS011;11158;53.404;-1.510;2023-02-04T14:37:33;5.30;;;1.60;;
21987;SDS011;11158;53.404;-1.510;2023-02-04T14:39:59;3.15;;;1.67;;
21987;SDS011;11158;53.404;-1.510;2023-02-04T14:42:24;2.95;;;1.20;;
21987;SDS011;11158;53.404;-1.510;2023-02-04T14:44:50;4.35;;;1.65;;
21987;SDS011;11158;53.404;-1.510;2023-02-04T14:47:15;3.67;;;1.30;;